Roseland, Louisiana
Current Conditions -  °F | °C
As of 8:23 AM on Sunday 21 Dec 2014 (Local Time) from KMCB Reporting Station
Scattered Clouds Scattered Clouds  
Wind Chill: 42°   Ceiling: Unl
Heat Index: 44°   Visibility: 8mi
Dew Point: 40°   Wind: 5mph
Humidity: 85%   Direction: 50°NE
Pressure: 30.11"   Gusts: NA
Location:  30.76°N, 90.51°W
Report Text: KMCB 211423Z AUTO 05004KT 8SM SCT018 07/04 A3011 RMK AO2 T00670044
Loading
Personal Weather Stations






























Interactive Weather Map New forecast layout! Learn more

10-Day Weather Forecast

Advertisements
Track Severe Weather on mobile